Terminal Aerodrome Forecast
Issued by NWS

Home | Current Version | Previous Version | Text Only | Print | Product List | Glossary On
Versions: 1 2 3 4 5 6 7 8 9 10 11 12 13 14 15 16 17 18 19 20 21 22 23 24 25 26 27
446
FTUS41 KBTV 220536
TAFPBG
TAF
KPBG 220536Z 2206/2306 01004KT P6SM OVC040
     FM221000 00000KT P6SM OVC015
     FM221900 36008KT P6SM VCSH OVC010
     FM222100 35008KT 1SM -SN BR OVC010
     FM222300 12004KT 1/2SM -SNPL FZFG OVC010
     FM230200 17006KT 1SM -FZRAPL BR OVC008
     FM230500 17011G17KT P6SM VCSH OVC015=

USA.gov is the U.S. government's official web portal to all federal, state and local government web resources and services.